createdAt,value
2022-09-15T00:01:24.217Z,100819.94
2022-09-15T00:03:52.927Z,100820.63
2022-09-15T00:06:22.526Z,100823.16
2022-09-15T00:08:50.828Z,100814.72
2022-09-15T00:11:22.647Z,100818.44
2022-09-15T00:13:54.205Z,100828.06
2022-09-15T00:16:24.183Z,100823.16
2022-09-15T00:18:52.710Z,100819.78
2022-09-15T00:21:26.098Z,100818.75
2022-09-15T00:23:54.491Z,100821.28
2022-09-15T00:26:25.517Z,100817.41
2022-09-15T00:28:54.395Z,100808.28
2022-09-15T00:31:25.366Z,100807.25
2022-09-15T00:33:59.933Z,100811.69
2022-09-15T00:36:30.026Z,100810.84
2022-09-15T00:38:59.517Z,100810.66
2022-09-15T00:41:27.884Z,100815.88
2022-09-15T00:43:57.775Z,100812.19
2022-09-15T00:46:29.863Z,100817.41
2022-09-15T00:49:11.450Z,100809.97
2022-09-15T00:51:47.671Z,100810.97
2022-09-15T00:54:19.038Z,100816.75
2022-09-15T00:56:50.867Z,100815.03
2022-09-15T00:59:22.586Z,100809.97
2022-09-15T01:01:58.090Z,100821.81
2022-09-15T01:04:26.674Z,100813.69
2022-09-15T01:07:03.611Z,100823.50
2022-09-15T01:09:36.863Z,100815.72
2022-09-15T01:12:06.181Z,100820.31
2022-09-15T01:14:34.378Z,100808.66
2022-09-15T01:17:14.292Z,100807.63
2022-09-15T01:20:16.127Z,100814.06
2022-09-15T01:22:58.310Z,100817.09
2022-09-15T01:25:45.996Z,100816.06
2022-09-15T01:28:52.738Z,100817.94
2022-09-15T01:31:26.312Z,100824.53
2022-09-15T01:33:58.126Z,100822.00
2022-09-15T01:36:32.229Z,100814.06
2022-09-15T01:39:05.690Z,100815.09
2022-09-15T01:41:39.580Z,100820.31
2022-09-15T01:44:10.647Z,100819.50
2022-09-15T01:46:47.101Z,100822.72
2022-09-15T01:49:19.902Z,100815.44
2022-09-15T01:51:52.147Z,100823.22
2022-09-15T01:54:23.706Z,100817.44
2022-09-15T01:56:51.782Z,100828.56
2022-09-15T01:59:19.804Z,100827.75
2022-09-15T02:01:57.454Z,100822.16
2022-09-15T02:04:31.742Z,100838.72
2022-09-15T02:07:06.399Z,100840.38
2022-09-15T02:09:39.941Z,100850.22
2022-09-15T02:12:14.605Z,100862.88
2022-09-15T02:14:49.387Z,100854.09
2022-09-15T02:17:21.966Z,100864.91
2022-09-15T02:19:55.136Z,100863.72
2022-09-15T02:22:27.999Z,100860.03
2022-09-15T02:25:02.290Z,100862.22
2022-09-15T02:27:34.023Z,100861.06
2022-09-15T02:30:06.628Z,100857.84
2022-09-15T02:32:41.078Z,100859.69
2022-09-15T02:35:11.199Z,100859.69
2022-09-15T02:37:40.164Z,100868.13
2022-09-15T02:40:09.368Z,100868.97
2022-09-15T02:42:39.245Z,100872.84
2022-09-15T02:45:08.579Z,100871.34
2022-09-15T02:47:38.073Z,100870.31
2022-09-15T02:50:07.343Z,100874.53
2022-09-15T02:52:35.423Z,100874.38
2022-09-15T02:55:03.419Z,100877.59
2022-09-15T02:57:31.384Z,100878.44
2022-09-15T03:00:15.019Z,100871.03
2022-09-15T03:02:46.166Z,100874.59
2022-09-15T03:05:15.899Z,100877.78
2022-09-15T03:07:44.113Z,100888.94
2022-09-15T03:10:14.062Z,100887.25
2022-09-15T03:12:44.356Z,100885.06
2022-09-15T03:15:14.337Z,100887.25
2022-09-15T03:17:46.509Z,100897.06
2022-09-15T03:20:16.937Z,100899.09
2022-09-15T03:22:45.186Z,100892.16
2022-09-15T03:25:13.775Z,100901.28
2022-09-15T03:27:42.464Z,100891.28
2022-09-15T03:30:12.148Z,100896.19
2022-09-15T03:32:40.170Z,100897.91
2022-09-15T03:35:11.772Z,100895.22
2022-09-15T03:37:39.988Z,100902.81
2022-09-15T03:40:10.689Z,100913.63
2022-09-15T03:42:38.858Z,100913.97
2022-09-15T03:45:07.679Z,100912.44
2022-09-15T03:47:35.724Z,100907.53
2022-09-15T03:50:03.828Z,100905.50
2022-09-15T03:52:33.944Z,100914.44
2022-09-15T03:55:01.971Z,100909.22
2022-09-15T03:57:29.956Z,100915.28
2022-09-15T03:59:57.936Z,100914.63
2022-09-15T04:02:26.033Z,100912.44
2022-09-15T04:04:54.012Z,100921.22
2022-09-15T04:07:21.933Z,100907.88
2022-09-15T04:09:51.550Z,100914.13
2022-09-15T04:12:19.522Z,100904.97
2022-09-15T04:14:47.770Z,100917.66
2022-09-15T04:17:16.206Z,100921.22
2022-09-15T04:19:44.176Z,100920.53
2022-09-15T04:22:16.983Z,100929.31
2022-09-15T04:24:46.203Z,100930.84
2022-09-15T04:27:15.754Z,100925.13
2022-09-15T04:29:44.230Z,100925.63
2022-09-15T04:32:12.331Z,100918.88
2022-09-15T04:34:41.470Z,100929.31
2022-09-15T04:37:09.702Z,100928.47
2022-09-15T04:39:37.715Z,100925.97
2022-09-15T04:42:07.994Z,100925.28
2022-09-15T04:44:37.420Z,100923.06
2022-09-15T04:47:05.976Z,100926.13
2022-09-15T04:49:34.054Z,100938.13
2022-09-15T04:52:03.338Z,100930.84
2022-09-15T04:54:34.823Z,100931.03
2022-09-15T04:57:03.208Z,100943.88
2022-09-15T04:59:31.276Z,100942.34
2022-09-15T05:02:01.567Z,100937.78
2022-09-15T05:04:29.572Z,100938.97
2022-09-15T05:06:57.982Z,100944.56
2022-09-15T05:09:26.535Z,100941.53
2022-09-15T05:11:54.494Z,100936.25
2022-09-15T05:14:22.580Z,100942.19
2022-09-15T05:16:50.715Z,100946.25
2022-09-15T05:19:20.163Z,100948.28
2022-09-15T05:21:48.218Z,100946.75
2022-09-15T05:24:16.748Z,100946.25
2022-09-15T05:26:44.728Z,100952.34
2022-09-15T05:29:13.793Z,100949.63
2022-09-15T05:31:41.833Z,100954.53
2022-09-15T05:34:11.263Z,100952.84
2022-09-15T05:36:40.641Z,100958.25
2022-09-15T05:39:08.705Z,100959.78
2022-09-15T05:41:36.900Z,100957.41
2022-09-15T05:44:04.938Z,100965.34
2022-09-15T05:46:32.959Z,100960.13
2022-09-15T05:49:00.925Z,100967.88
2022-09-15T05:51:30.227Z,100970.75
2022-09-15T05:54:00.118Z,100975.66
2022-09-15T05:56:28.183Z,100975.66
2022-09-15T05:58:56.227Z,100977.69
2022-09-15T06:01:26.202Z,100988.53
2022-09-15T06:03:55.158Z,100988.16
2022-09-15T06:06:24.001Z,100991.06
2022-09-15T06:08:58.087Z,100998.66
2022-09-15T06:11:29.614Z,100995.44
2022-09-15T06:14:00.627Z,100998.81
2022-09-15T06:16:29.194Z,100996.78
2022-09-15T06:18:57.204Z,100998.66
2022-09-15T06:21:27.690Z,101006.13
2022-09-15T06:23:56.928Z,101003.72
2022-09-15T06:26:25.849Z,101006.44
2022-09-15T06:28:57.273Z,101009.81
2022-09-15T06:31:26.653Z,101015.06
2022-09-15T06:33:56.354Z,101013.22
2022-09-15T06:36:26.156Z,101013.53
2022-09-15T06:38:54.733Z,101014.22
2022-09-15T06:41:23.260Z,101017.25
2022-09-15T06:43:51.593Z,101019.47
2022-09-15T06:46:23.080Z,101013.03
2022-09-15T06:48:52.154Z,101013.88
2022-09-15T06:51:22.676Z,101022.69
2022-09-15T06:53:51.084Z,101022.00
2022-09-15T06:56:21.654Z,101019.63
2022-09-15T06:58:53.497Z,101015.03
2022-09-15T07:01:25.319Z,101028.22
2022-09-15T07:03:54.202Z,101037.16
2022-09-15T07:06:23.049Z,101033.78
2022-09-15T07:08:53.975Z,101032.09
2022-09-15T07:11:22.024Z,101037.66
2022-09-15T07:13:51.037Z,101040.50
2022-09-15T07:16:21.180Z,101049.97
2022-09-15T07:18:53.622Z,101053.03
2022-09-15T07:21:22.836Z,101053.34
2022-09-15T07:23:52.065Z,101040.84
2022-09-15T07:26:22.436Z,101050.81
2022-09-15T07:28:53.534Z,101049.47
2022-09-15T07:31:23.824Z,101050.97
2022-09-15T07:33:53.889Z,101053.53
2022-09-15T07:36:22.944Z,101056.72
2022-09-15T07:38:52.009Z,101066.06
2022-09-15T07:41:22.440Z,101064.88
2022-09-15T07:43:51.777Z,101065.75
2022-09-15T07:46:21.361Z,101079.09
2022-09-15T07:48:51.597Z,101080.63
2022-09-15T07:51:23.802Z,101078.66
2022-09-15T07:53:53.326Z,101081.56
2022-09-15T07:56:30.780Z,101086.28
2022-09-15T07:59:01.482Z,101088.66
2022-09-15T08:01:30.184Z,101092.25
2022-09-15T08:03:59.200Z,101090.22
2022-09-15T08:06:45.358Z,101092.09
2022-09-15T08:09:23.326Z,101105.97
2022-09-15T08:11:52.569Z,101096.16
2022-09-15T08:14:23.880Z,101099.34
2022-09-15T08:16:52.327Z,101104.97
2022-09-15T08:19:23.339Z,101101.88
2022-09-15T08:21:57.618Z,101098.84
2022-09-15T08:24:25.935Z,101105.28
2022-09-15T08:26:54.679Z,101107.66
2022-09-15T08:29:29.855Z,101105.47
2022-09-15T08:31:58.230Z,101109.16
2022-09-15T08:34:28.730Z,101108.66
2022-09-15T08:36:58.687Z,101113.41
2022-09-15T08:39:28.283Z,101127.28
2022-09-15T08:41:58.224Z,101119.47
2022-09-15T08:44:42.247Z,101116.09
2022-09-15T08:47:16.500Z,101114.38
2022-09-15T08:49:55.973Z,101118.13
2022-09-15T08:52:31.669Z,101132.19
2022-09-15T08:55:02.778Z,101131.53
2022-09-15T08:57:33.001Z,101142.69
2022-09-15T09:00:05.040Z,101138.94
2022-09-15T09:03:07.357Z,101128.44
2022-09-15T09:05:59.579Z,101136.44
2022-09-15T09:08:50.407Z,101136.44
2022-09-15T09:11:27.136Z,101137.41
2022-09-15T09:14:07.617Z,101130.66
2022-09-15T09:16:50.050Z,101137.13
2022-09-15T09:19:43.745Z,101135.94
2022-09-15T09:22:16.111Z,101136.44
2022-09-15T09:24:52.311Z,101149.28
2022-09-15T09:27:26.194Z,101142.84
2022-09-15T09:30:02.361Z,101143.00
2022-09-15T09:32:44.775Z,101138.09
2022-09-15T09:35:26.934Z,101145.56
2022-09-15T09:37:57.525Z,101142.19
2022-09-15T09:40:28.341Z,101148.78
2022-09-15T09:42:56.476Z,101163.69
2022-09-15T09:45:24.710Z,101154.53
2022-09-15T09:47:59.573Z,101150.97
2022-09-15T09:50:36.639Z,101176.38
2022-09-15T09:53:23.989Z,101164.88
2022-09-15T09:56:24.513Z,101150.00
2022-09-15T09:58:53.997Z,101157.28
2022-09-15T10:01:25.121Z,101146.41
2022-09-15T10:04:29.933Z,101148.09
2022-09-15T10:06:58.326Z,101156.91
2022-09-15T10:09:31.201Z,101159.59
2022-09-15T10:12:05.089Z,101163.34
2022-09-15T10:14:36.270Z,101163.47
2022-09-15T10:17:10.039Z,101168.91
2022-09-15T10:19:47.933Z,101174.63
2022-09-15T10:22:42.912Z,101157.31
2022-09-15T10:25:55.198Z,101163.41
2022-09-15T10:28:28.855Z,101159.34
2022-09-15T10:31:11.390Z,101162.75
2022-09-15T10:33:45.054Z,101168.31
2022-09-15T10:36:16.229Z,101164.63
2022-09-15T10:47:28.206Z,101154.97
2022-09-15T10:50:10.163Z,101165.41
2022-09-15T10:52:54.150Z,101176.22
2022-09-15T10:55:52.346Z,101176.22
2022-09-15T11:02:06.236Z,101166.44
2022-09-15T11:05:17.942Z,101193.63
2022-09-15T11:08:03.555Z,101185.50
2022-09-15T11:10:53.200Z,101196.53
2022-09-15T11:13:31.028Z,101181.28
2022-09-15T11:16:24.268Z,101179.78
2022-09-15T11:19:08.101Z,101188.06
2022-09-15T11:21:54.344Z,101180.44
2022-09-15T11:27:43.031Z,101175.34
2022-09-15T11:30:21.875Z,101175.88
2022-09-15T11:32:59.473Z,101187.03
2022-09-15T11:35:40.807Z,101176.91
2022-09-15T11:38:51.164Z,101197.34
2022-09-15T11:41:25.886Z,101181.63
2022-09-15T11:44:06.262Z,101188.06
2022-09-15T11:46:51.916Z,101176.72
2022-09-15T11:49:23.990Z,101192.63
2022-09-15T11:51:58.068Z,101195.34
2022-09-15T11:54:37.068Z,101186.72
2022-09-15T11:57:06.148Z,101190.22
2022-09-15T11:59:43.418Z,101188.00
2022-09-15T12:02:23.766Z,101187.94
2022-09-15T12:05:05.071Z,101173.31
2022-09-15T12:07:35.964Z,101180.22
2022-09-15T12:10:16.407Z,101185.63
2022-09-15T12:13:08.007Z,101199.63
2022-09-15T12:15:36.826Z,101191.06
2022-09-15T12:18:37.781Z,101203.06
2022-09-15T12:21:17.912Z,101194.16
2022-09-15T12:23:54.698Z,101192.63
2022-09-15T12:26:29.291Z,101204.22
2022-09-15T12:31:46.682Z,101203.97
2022-09-15T12:35:01.368Z,101206.25
2022-09-15T12:38:20.376Z,101210.88
2022-09-15T12:41:05.300Z,101199.00
2022-09-15T12:44:03.951Z,101201.38
2022-09-15T12:52:59.913Z,101201.63
2022-09-15T12:55:32.037Z,101199.59
2022-09-15T12:58:16.756Z,101195.59
2022-09-15T13:01:07.176Z,101194.06
2022-09-15T13:04:30.253Z,101190.44
2022-09-15T13:08:05.790Z,101188.81
2022-09-15T13:14:27.562Z,101191.88
2022-09-15T13:23:56.753Z,101192.06
2022-09-15T13:26:58.976Z,101192.16
2022-09-15T13:29:34.384Z,101187.47
2022-09-15T13:32:12.204Z,101189.53
2022-09-15T13:35:29.052Z,101196.25
2022-09-15T13:38:54.737Z,101205.84
2022-09-15T13:45:45.880Z,101204.44
2022-09-15T13:48:34.942Z,101193.47
2022-09-15T13:51:14.688Z,101195.47
2022-09-15T13:53:50.311Z,101198.16
2022-09-15T13:56:24.830Z,101200.47
2022-09-15T13:58:56.383Z,101197.66
2022-09-15T14:01:31.583Z,101192.44
2022-09-15T14:04:03.122Z,101189.59
2022-09-15T14:06:42.878Z,101193.06
2022-09-15T14:09:17.458Z,101190.81
2022-09-15T14:11:54.802Z,101190.94
2022-09-15T14:14:41.479Z,101192.94
2022-09-15T14:17:24.243Z,101207.19
2022-09-15T14:19:56.569Z,101209.63
2022-09-15T14:22:29.328Z,101198.06
2022-09-15T14:24:58.941Z,101193.66
2022-09-15T14:27:29.209Z,101190.13
2022-09-15T14:30:54.968Z,101190.25
2022-09-15T14:33:38.203Z,101193.19
2022-09-15T14:36:15.195Z,101196.75
2022-09-15T14:41:52.475Z,101192.09
2022-09-15T14:51:03.224Z,101187.25
2022-09-15T14:53:31.987Z,101199.72
2022-09-15T14:56:08.231Z,101192.06
2022-09-15T14:58:41.821Z,101198.31
2022-09-15T15:01:16.844Z,101203.81
2022-09-15T15:03:51.034Z,101207.06
2022-09-15T15:06:30.783Z,101206.94
2022-09-15T15:09:07.625Z,101208.00
2022-09-15T15:11:45.303Z,101218.06
2022-09-15T15:14:20.558Z,101216.47
2022-09-15T15:16:56.580Z,101219.06
2022-09-15T15:19:36.851Z,101222.03
2022-09-15T15:22:20.342Z,101225.97
2022-09-15T15:24:51.534Z,101217.19
2022-09-15T15:27:27.724Z,101219.72
2022-09-15T15:29:58.225Z,101230.25
2022-09-15T15:32:27.146Z,101225.66
2022-09-15T15:35:04.486Z,101235.31
2022-09-15T15:43:27.798Z,101219.97
2022-09-15T15:46:01.025Z,101218.41
2022-09-15T15:48:36.908Z,101219.91
2022-09-15T15:51:07.174Z,101215.00
2022-09-15T15:53:37.481Z,101218.94
2022-09-15T15:56:10.103Z,101211.81
2022-09-15T15:58:38.688Z,101216.94
2022-09-15T16:01:07.518Z,101218.31
2022-09-15T16:03:35.837Z,101227.13
2022-09-15T16:06:04.585Z,101222.91
2022-09-15T16:08:35.321Z,101230.22
2022-09-15T16:11:04.818Z,101233.78
2022-09-15T16:13:34.519Z,101239.72
2022-09-15T16:16:03.879Z,101231.44
2022-09-15T16:18:32.373Z,101227.88
2022-09-15T16:21:00.532Z,101240.41
2022-09-15T16:23:28.599Z,101241.06
2022-09-15T16:26:05.296Z,101232.09
2022-09-15T16:28:35.008Z,101236.16
2022-09-15T16:31:03.286Z,101232.78
2022-09-15T16:33:35.933Z,101235.31
2022-09-15T16:36:08.270Z,101228.03
2022-09-15T16:38:37.746Z,101234.63
2022-09-15T16:41:12.548Z,101244.63
2022-09-15T16:44:05.277Z,101244.50
2022-09-15T16:46:33.532Z,101246.19
2022-09-15T16:49:03.363Z,101242.09
2022-09-15T16:51:38.919Z,101245.84
2022-09-15T16:54:16.121Z,101240.59
2022-09-15T16:56:45.942Z,101239.56
2022-09-15T16:59:43.522Z,101235.50
2022-09-15T17:02:27.961Z,101238.72
2022-09-15T17:04:56.625Z,101243.28
2022-09-15T17:07:25.633Z,101242.75
2022-09-15T17:09:56.753Z,101247.84
2022-09-15T17:12:40.208Z,101241.56
2022-09-15T17:15:31.551Z,101237.88
2022-09-15T17:18:11.156Z,101239.88
2022-09-15T17:20:44.558Z,101249.53
2022-09-15T17:26:31.324Z,101258.16
2022-09-15T17:29:04.220Z,101260.72
2022-09-15T17:31:35.903Z,101259.53
2022-09-15T17:34:04.920Z,101267.16
2022-09-15T17:36:37.468Z,101264.81
2022-09-15T17:39:06.151Z,101270.22
2022-09-15T17:44:21.929Z,101273.28
2022-09-15T17:46:55.478Z,101277.19
2022-09-15T17:49:46.178Z,101269.91
2022-09-15T17:52:17.731Z,101277.50
2022-09-15T17:54:47.555Z,101275.28
2022-09-15T17:57:15.642Z,101284.94
2022-09-15T17:59:56.802Z,101292.09
2022-09-15T18:02:40.018Z,101292.94
2022-09-15T18:08:17.045Z,101281.94
2022-09-15T18:13:45.662Z,101280.03
2022-09-15T18:16:19.593Z,101286.78
2022-09-15T18:18:53.405Z,101291.50
2022-09-15T18:29:33.649Z,101278.97
2022-09-15T18:32:09.371Z,101303.81
2022-09-15T18:34:49.490Z,101304.78
2022-09-15T18:37:19.751Z,101301.84
2022-09-15T18:39:49.465Z,101285.06
2022-09-15T18:42:17.997Z,101293.28
2022-09-15T18:44:46.685Z,101298.16
2022-09-15T18:47:14.949Z,101296.09
2022-09-15T18:49:47.060Z,101296.38
2022-09-15T18:52:16.255Z,101304.78
2022-09-15T18:54:44.568Z,101307.78
2022-09-15T18:57:14.181Z,101303.88
2022-09-15T18:59:42.973Z,101307.84
2022-09-15T19:02:14.550Z,101309.34
2022-09-15T19:04:47.508Z,101299.84
2022-09-15T19:07:18.480Z,101311.16
2022-09-15T19:10:03.720Z,101311.22
2022-09-15T19:12:38.489Z,101314.41
2022-09-15T19:15:12.358Z,101320.09
2022-09-15T19:17:59.396Z,101315.31
2022-09-15T19:20:31.615Z,101324.91
2022-09-15T19:23:15.576Z,101329.41
2022-09-15T19:28:34.986Z,101326.78
2022-09-15T19:31:07.341Z,101334.03
2022-09-15T19:33:37.872Z,101329.09
2022-09-15T19:36:27.549Z,101329.56
2022-09-15T19:39:17.847Z,101336.75
2022-09-15T19:41:46.474Z,101340.84
2022-09-15T19:44:16.985Z,101338.44
2022-09-15T19:46:48.306Z,101344.53
2022-09-15T19:49:20.137Z,101344.84
2022-09-15T19:52:06.677Z,101348.53
2022-09-15T19:54:43.618Z,101345.97
2022-09-15T19:57:22.213Z,101350.53
2022-09-15T19:59:53.873Z,101366.19
2022-09-15T20:02:22.644Z,101361.63
2022-09-15T20:04:54.307Z,101362.34
2022-09-15T20:07:26.013Z,101367.91
2022-09-15T20:09:58.346Z,101368.44
2022-09-15T20:12:37.376Z,101374.22
2022-09-15T20:15:07.069Z,101370.00
2022-09-15T20:17:35.377Z,101370.53
2022-09-15T20:20:07.326Z,101384.44
2022-09-15T20:22:35.905Z,101378.03
2022-09-15T20:25:07.757Z,101379.16
2022-09-15T20:27:41.269Z,101374.03
2022-09-15T20:30:11.071Z,101366.91
2022-09-15T20:32:39.270Z,101372.19
2022-09-15T20:35:12.498Z,101374.03
2022-09-15T20:37:41.025Z,101381.69
2022-09-15T20:40:11.305Z,101373.97
2022-09-15T20:42:39.490Z,101375.22
2022-09-15T20:45:08.668Z,101386.03
2022-09-15T20:47:36.942Z,101381.00
2022-09-15T20:50:05.527Z,101388.09
2022-09-15T20:52:38.207Z,101382.53
2022-09-15T20:55:10.656Z,101390.50
2022-09-15T20:57:40.399Z,101385.78
2022-09-15T21:00:10.516Z,101389.72
2022-09-15T21:02:39.224Z,101392.97
2022-09-15T21:05:07.690Z,101393.59
2022-09-15T21:07:35.730Z,101391.88
2022-09-15T21:10:03.763Z,101395.19
2022-09-15T21:12:31.959Z,101399.38
2022-09-15T21:15:02.313Z,101404.53
2022-09-15T21:17:30.507Z,101391.59
2022-09-15T21:19:58.622Z,101394.91
2022-09-15T21:22:26.691Z,101410.72
2022-09-15T21:24:56.107Z,101403.25
2022-09-15T21:27:30.730Z,101409.38
2022-09-15T21:29:59.192Z,101401.72
2022-09-15T21:32:29.967Z,101409.41
2022-09-15T21:34:58.190Z,101406.16
2022-09-15T21:37:28.054Z,101418.94
2022-09-15T21:39:57.051Z,101415.81
2022-09-15T21:42:25.694Z,101406.31
2022-09-15T21:44:54.617Z,101407.47
2022-09-15T21:47:22.842Z,101412.03
2022-09-15T21:49:53.055Z,101416.25
2022-09-15T21:52:21.779Z,101416.25
2022-09-15T21:54:49.802Z,101417.97
2022-09-15T21:57:18.134Z,101416.66
2022-09-15T21:59:46.749Z,101418.81
2022-09-15T22:02:17.531Z,101422.19
2022-09-15T22:04:46.014Z,101418.50
2022-09-15T22:07:19.776Z,101428.19
2022-09-15T22:09:48.387Z,101416.22
2022-09-15T22:12:16.468Z,101409.97
2022-09-15T22:14:44.585Z,101415.09
2022-09-15T22:17:12.684Z,101422.19
2022-09-15T22:19:40.846Z,101422.88
2022-09-15T22:22:09.241Z,101422.75
2022-09-15T22:24:39.041Z,101427.13
2022-09-15T22:27:07.226Z,101433.22
2022-09-15T22:29:35.257Z,101429.22
2022-09-15T22:32:03.813Z,101433.78
2022-09-15T22:34:31.937Z,101425.84
2022-09-15T22:37:00.130Z,101425.00
2022-09-15T22:39:50.309Z,101428.69
2022-09-15T22:42:18.838Z,101420.91
2022-09-15T22:44:47.170Z,101419.03
2022-09-15T22:47:15.490Z,101423.28
2022-09-15T22:49:43.843Z,101415.03
2022-09-15T22:52:13.311Z,101418.72
2022-09-15T22:54:41.345Z,101422.97
2022-09-15T22:57:09.486Z,101425.53
2022-09-15T22:59:38.980Z,101417.88
2022-09-15T23:02:07.234Z,101421.41
2022-09-15T23:04:35.336Z,101421.41
2022-09-15T23:07:03.511Z,101427.81
2022-09-15T23:09:31.864Z,101416.78
2022-09-15T23:12:00.105Z,101421.03
2022-09-15T23:14:28.473Z,101418.47
2022-09-15T23:16:58.239Z,101425.72
2022-09-15T23:19:26.356Z,101414.25
2022-09-15T23:21:54.428Z,101418.06
2022-09-15T23:24:22.553Z,101421.06
2022-09-15T23:26:50.539Z,101421.06
2022-09-15T23:29:18.798Z,101414.81
2022-09-15T23:31:47.014Z,101409.53
2022-09-15T23:34:16.588Z,101415.38
2022-09-15T23:36:44.798Z,101407.44
2022-09-15T23:39:12.833Z,101410.69
2022-09-15T23:41:41.405Z,101408.53
2022-09-15T23:44:09.515Z,101413.91
2022-09-15T23:46:37.704Z,101414.03
2022-09-15T23:49:05.835Z,101410.34
2022-09-15T23:51:35.933Z,101416.13
2022-09-15T23:54:04.764Z,101415.84
2022-09-15T23:56:33.977Z,101411.13
2022-09-15T23:59:01.945Z,101406.44
